Latest Weather Observations for Norseman Airport

IDW60801

Issued at 7:43 am WST Tuesday 14 July 2020 (issued every 10 minutes, with the page automatically refreshed every 10 minutes)

About weather observations | Map of weather stations | Latest weather observations for WA | Other Formats
Station Details ID: 012009 Name: NORSEMAN AERO Lat: -32.21 Lon: 121.75 Height: 262.5 m
Data from the previous 72 hours. | See also: Recent months at Norseman Airport
Date/Time
WST
Temp
°C
App
Temp
°C
Dew
Point
°C
Rel
Hum
%
Delta-T
°C
Wind Press
QNH
hPa
Press
MSL
hPa
Rain since
9am
mm
Dir  Spd
km/h
Gust
km/h
Spd
kts
Gust
kts
14/07:30am 10.5 2.8 -6.8 29 6.1 NNE 26 30 14 16 1011.5 1011.6 0.0
14/07:00am 8.1 1.2 -6.0 36 4.9 N 22 26 12 14 1011.5 1011.6 0.0
14/06:30am 8.5 2.1 -6.4 34 5.1 NNE 19 20 10 11 1011.3 1011.4 0.0
14/06:00am 9.8 2.5 -6.5 31 5.7 NNE 24 30 13 16 1011.6 1011.7 0.0
14/05:30am 10.0 2.7 -6.3 31 5.7 NNE 24 28 13 15 1011.9 1012.0 0.0
14/05:00am 9.5 3.0 -5.9 33 5.4 NNE 20 24 11 13 1012.3 1012.4 0.0
14/04:30am 9.7 2.8 -5.8 33 5.5 NNE 22 26 12 14 1012.4 1012.5 0.0
14/04:00am 9.6 3.1 -5.5 34 5.4 NNE 20 24 11 13 1012.4 1012.5 0.0
14/03:30am 8.3 2.1 -5.2 38 4.8 NNE 19 20 10 11 1012.6 1012.7 0.0
14/03:00am 9.3 2.9 -5.4 35 5.2 NNE 20 22 11 12 1012.7 1012.8 0.0
14/02:30am 9.7 3.3 -5.4 34 5.4 NNE 20 22 11 12 1012.8 1012.9 0.0
14/02:00am 10.4 4.0 -4.8 34 5.6 NNE 20 24 11 13 1013.2 1013.3 0.0
14/01:30am 9.9 3.5 -4.8 35 5.4 NNE 20 24 11 13 1013.5 1013.7 0.0
14/01:00am 9.9 3.7 -4.8 35 5.4 NNE 19 20 10 11 1013.8 1014.0 0.0
14/12:30am 11.2 4.8 -4.9 32 5.9 NNE 20 24 11 13 1013.8 1014.0 0.0
14/12:00am 10.9 4.5 -4.7 33 5.8 NNE 20 24 11 13 1014.2 1014.4 0.0
 
Date/Time
WST
Temp
°C
App
Temp
°C
Dew
Point
°C
Rel
Hum
%
Delta-T
°C
Wind Press
QNH
hPa
Press
MSL
hPa
Rain since
9am
mm
Dir  Spd
km/h
Gust
km/h
Spd
kts
Gust
kts
13/11:30pm 10.4 4.2 -4.4 35 5.5 NNE 19 20 10 11 1014.7 1014.9 0.0
13/11:00pm 11.1 4.4 -4.1 34 5.7 N 22 26 12 14 1014.9 1015.1 0.0
13/10:30pm 12.1 5.0 -4.1 32 6.2 N 24 26 13 14 1014.9 1015.1 0.0
13/10:00pm 11.6 5.3 -3.7 34 5.8 N 20 24 11 13 1014.9 1015.1 0.0
13/09:30pm 11.1 5.4 -3.4 36 5.5 NNE 17 20 9 11 1015.0 1015.2 0.0
13/09:00pm 10.8 6.4 -2.2 40 5.1 NNE 11 15 6 8 1015.3 1015.4 0.0
13/08:30pm 11.6 6.8 -2.2 38 5.4 NNE 13 15 7 8 1015.2 1015.3 0.0
13/08:00pm 12.3 7.6 -2.0 37 5.7 NNE 13 15 7 8 1015.4 1015.5 0.0
13/07:30pm 12.5 8.6 -1.8 37 5.7 N 9 11 5 6 1015.5 1015.6 0.0
13/07:00pm 13.8 9.0 -2.2 33 6.5 N 13 15 7 8 1015.5 1015.6 0.0
13/06:30pm 15.7 10.1 -2.7 28 7.5 N 17 19 9 10 1015.5 1015.6 0.0
13/06:00pm 17.2 11.1 -2.4 26 8.1 NNE 20 24 11 13 1015.3 1015.4 0.0
13/05:30pm 18.2 11.7 -2.1 25 8.6 NNE 22 26 12 14 1015.2 1015.3 0.0
13/05:00pm 19.5 13.0 -2.2 23 9.3 NNE 22 30 12 16 1014.8 1015.0 0.0
13/04:30pm 21.0 13.4 -2.1 21 10.0 N 28 33 15 18 1014.9 1015.1 0.0
13/04:00pm 21.7 14.0 -2.9 19 10.6 N 28 35 15 19 1014.9 1015.1 0.0
13/03:30pm 22.4 15.2 -2.3 19 10.8 N 26 32 14 17 1014.8 1015.0 0.0
13/03:00pm 22.4 14.7 -3.1 18 11.0 N 28 39 15 21 1014.9 1015.1 0.0
13/02:30pm 22.6 16.0 -2.9 18 11.0 N 22 30 12 16 1015.2 1015.3 0.0
13/02:00pm 21.8 14.6 -2.1 20 10.4 NNE 26 33 14 18 1015.3 1015.4 0.0
13/01:30pm 21.8 15.0 -2.1 20 10.4 N 24 33 13 18 1015.5 1015.6 0.0
13/01:00pm 21.3 14.0 -2.5 20 10.2 N 26 33 14 18 1015.8 1015.9 0.0
13/12:30pm 20.8 13.2 -2.3 21 10.0 N 28 35 15 19 1016.2 1016.3 0.0
13/12:00pm 19.7 11.8 -1.4 24 9.2 N 30 39 16 21 1016.7 1016.9 0.0
13/11:30am 19.1 12.4 -0.8 26 8.7 N 24 28 13 15 1017.6 1017.8 0.0
13/11:00am 17.3 11.1 -0.4 30 7.7 NNE 22 30 12 16 1018.3 1018.5 0.0
13/10:30am 16.0 8.9 -1.1 31 7.2 N 26 32 14 17 1018.8 1019.0 0.0
13/10:00am 14.2 7.1 -1.0 35 6.3 N 26 32 14 17 1019.4 1019.5 0.0
13/09:30am 12.9 6.3 -0.4 40 5.5 N 24 30 13 16 1019.7 1019.8 0.0
13/09:00am 10.9 4.7 0.0 47 4.5 N 22 26 12 14 1019.9 1020.1 0.0
13/08:30am 10.2 3.6 -0.3 48 4.3 N 24 30 13 16 1019.7 1019.8 0.0
13/08:00am 9.2 3.4 0.1 53 3.7 NNE 20 26 11 14 1019.5 1019.6 0.0
13/07:30am 6.9 1.7 -0.1 61 2.8 N 17 19 9 10 1019.5 1019.6 0.0
13/07:00am 4.1 -0.5 -0.7 71 1.8 NNE 13 15 7 8 1019.4 1019.5 0.0
13/06:30am 3.4 -1.2 -1.0 73 1.6 NNE 13 15 7 8 1019.4 1019.5 0.0
13/06:00am 4.2 0.1 -0.4 72 1.7 NNE 11 11 6 6 1019.3 1019.4 0.0
13/05:30am 3.7 -0.9 -0.7 73 1.6 NNE 13 15 7 8 1019.2 1019.3 0.0
13/05:00am 3.9 -0.7 -0.7 72 1.7 NNE 13 17 7 9 1019.2 1019.3 0.0
13/04:30am 4.1 -0.8 -0.7 71 1.8 N 15 17 8 9 1018.9 1019.1 0.0
13/04:00am 4.8 -0.1 -0.4 69 2.0 N 15 17 8 9 1019.2 1019.3 0.0
13/03:30am 7.6 1.9 0.6 61 2.8 NNE 20 24 11 13 1018.9 1019.1 0.0
13/03:00am 5.4 0.3 0.6 71 1.9 NNE 17 19 9 10 1019.0 1019.2 0.0
13/02:30am 6.4 2.0 0.3 65 2.4 N 13 13 7 7 1019.5 1019.6 0.0
13/02:00am 8.0 2.9 1.0 61 2.9 NNE 17 20 9 11 1019.2 1019.3 0.0
13/01:30am 8.4 3.3 0.9 59 3.1 NNE 17 20 9 11 1019.5 1019.6 0.0
13/01:00am 9.1 4.1 1.3 58 3.2 NNE 17 20 9 11 1019.5 1019.6 0.0
13/12:30am 7.4 3.5 1.0 64 2.6 NNE 11 13 6 7 1020.0 1020.2 0.0
13/12:00am 8.8 5.0 1.5 60 3.0 N 11 15 6 8 1020.3 1020.5 0.0
 
Date/Time
WST
Temp
°C
App
Temp
°C
Dew
Point
°C
Rel
Hum
%
Delta-T
°C
Wind Press
QNH
hPa
Press
MSL
hPa
Rain since
9am
mm
Dir  Spd
km/h
Gust
km/h
Spd
kts
Gust
kts
12/11:30pm 9.9 4.8 1.0 54 3.7 NNE 17 19 9 10 1020.0 1020.2 0.0
12/11:00pm 10.8 4.5 1.4 52 4.0 NNE 24 28 13 15 1019.6 1019.7 0.0
12/10:30pm 11.9 4.8 1.3 48 4.5 NNE 28 37 15 20 1019.7 1019.8 0.0
12/10:00pm 12.3 5.5 1.0 46 4.8 NNE 26 37 14 20 1019.6 1019.7 0.0
12/09:30pm 12.5 5.8 1.5 47 4.8 NE 26 33 14 18 1020.0 1020.2 0.0
12/09:00pm 12.5 6.2 1.5 47 4.7 NE 24 33 13 18 1020.4 1020.6 0.0
12/08:30pm 12.1 5.8 1.4 48 4.6 NNE 24 32 13 17 1020.7 1020.9 0.0
12/08:00pm 11.6 6.7 2.1 52 4.1 NNE 17 20 9 11 1021.5 1021.7 0.0
12/07:30pm 9.8 6.5 2.2 59 3.3 NNW 9 11 5 6 1021.8 1022.0 0.0
12/07:00pm 11.7 6.7 1.6 50 4.3 NE 17 20 9 11 1021.6 1021.8 0.0
12/06:30pm 12.2 7.3 2.1 50 4.4 NE 17 20 9 11 1021.4 1021.6 0.0
12/06:00pm 11.6 7.4 1.8 51 4.2 NE 13 15 7 8 1021.5 1021.7 0.0
12/05:30pm 12.8 8.7 2.1 48 4.7 NNE 13 17 7 9 1021.4 1021.6 0.0
12/05:00pm 14.5 8.7 2.1 43 5.5 NNE 22 30 12 16 1021.1 1021.3 0.0
12/04:30pm 15.7 9.5 2.2 40 6.1 NNE 24 30 13 16 1021.2 1021.4 0.0
12/04:00pm 16.1 9.1 2.2 39 6.3 NNE 28 37 15 20 1021.4 1021.6 0.0
12/03:30pm 16.5 10.0 2.5 39 6.4 N 26 33 14 18 1021.5 1021.7 0.0
12/03:00pm 16.2 10.1 2.6 40 6.2 N 24 32 13 17 1021.8 1022.0 0.0
12/02:30pm 16.2 9.3 2.6 40 6.2 N 28 39 15 21 1021.7 1021.9 0.0
12/02:00pm 15.7 8.4 2.5 41 6.0 N 30 41 16 22 1021.8 1022.0 0.0
12/01:30pm 15.5 8.2 2.7 42 5.8 N 30 39 16 21 1022.2 1022.4 0.0
12/01:00pm 15.6 8.4 3.1 43 5.7 N 30 41 16 22 1022.8 1023.0 0.0
12/12:30pm 15.2 8.4 3.0 44 5.6 N 28 37 15 20 1023.5 1023.7 0.0
12/12:00pm 14.6 7.5 3.7 48 5.0 N 30 39 16 21 1024.2 1024.4 0.0
12/11:30am 13.7 7.5 4.3 53 4.4 N 26 35 14 19 1024.7 1024.9 0.0
12/11:00am 12.6 6.8 4.3 57 3.8 N 24 32 13 17 1025.4 1025.6 0.0
12/10:30am 11.7 6.4 5.1 64 3.1 N 22 28 12 15 1026.0 1026.2 0.0
12/10:00am 10.3 4.2 4.9 69 2.5 N 26 32 14 17 1026.3 1026.6 0.0
12/09:30am 9.2 3.1 4.8 74 2.0 N 26 32 14 17 1026.4 1026.7 0.0
12/09:00am 7.9 2.1 4.3 78 1.6 N 24 30 13 16 1026.6 1026.9 0.0
12/08:30am 6.2 1.2 3.5 83 1.2 N 19 20 10 11 1026.7 1027.0 0.0
12/08:00am 4.7 0.9 4.0 95 0.3 NNE 13 15 7 8 1026.7 1027.0 0.0
12/07:30am 3.2 -0.8 3.1 99 0.0 NE 13 15 7 8 1026.7 1027.0 0.0
12/07:00am 1.3 -2.2 1.2 99 0.0 NNE 9 13 5 7 1026.6 1026.9 0.0
12/06:30am 0.8 -3.2 0.7 99 0.0 N 11 11 6 6 1026.6 1026.9 0.0
12/06:00am 0.8 -3.2 0.7 99 0.0 NNE 11 13 6 7 1026.3 1026.6 0.0
12/05:30am 0.5 -3.1 0.4 99 0.0 NNE 9 11 5 6 1026.4 1026.7 0.0
12/05:00am 1.1 -2.1 1.0 99 0.0 NNE 7 7 4 4 1026.3 1026.6 0.0
12/04:30am -0.5 -4.3 -0.8 98 0.1 NE 9 9 5 5 1026.4 1026.7 0.0
12/04:00am -0.5 -2.6 -0.9 97 0.1 CALM 0 0 0 0 1026.7 1027.0 0.0
12/03:30am -0.7 -2.8 -1.1 97 0.1 CALM 0 0 0 0 1027.0 1027.3 0.0
12/03:00am 0.1 -1.9 -0.3 97 0.1 CALM 0 0 0 0 1027.3 1027.5 0.0
12/02:30am 0.2 -1.8 -0.4 96 0.2 CALM 0 0 0 0 1027.4 1027.6 0.0
12/02:00am 0.6 -1.4 -0.1 95 0.3 CALM 0 0 0 0 1027.6 1027.8 0.0
12/01:30am 0.9 -1.1 0.0 94 0.3 CALM 0 0 0 0 1027.7 1027.9 0.0
12/01:00am 1.2 -1.5 0.3 94 0.3 SW 4 7 2 4 1027.7 1027.9 0.0
12/12:30am 1.9 -1.3 1.0 94 0.3 SW 7 9 4 5 1027.7 1027.9 0.0
12/12:00am 1.4 -1.0 -0.1 90 0.6 WNW 2 7 1 4 1027.9 1028.1 0.0
 
Date/Time
WST
Temp
°C
App
Temp
°C
Dew
Point
°C
Rel
Hum
%
Delta-T
°C
Wind Press
QNH
hPa
Press
MSL
hPa
Rain since
9am
mm
Dir  Spd
km/h
Gust
km/h
Spd
kts
Gust
kts
11/11:30pm 2.6 0.8 1.0 89 0.6 CALM 0 0 0 0 1027.9 1028.1 0.0
11/11:00pm 2.6 0.8 1.0 89 0.6 CALM 0 0 0 0 1028.1 1028.3 0.0
11/10:30pm 3.1 1.3 1.0 86 0.8 CALM 0 0 0 0 1028.3 1028.5 0.0
11/10:00pm 4.6 3.0 2.5 86 0.9 CALM 0 0 0 0 1028.5 1028.7 0.0
11/09:30pm 4.7 2.7 2.4 85 0.9 NE 2 7 1 4 1028.7 1028.9 0.0
11/09:00pm 4.8 1.8 2.0 82 1.1 ESE 7 11 4 6 1029.0 1029.2 0.0
11/08:30pm 5.6 4.1 3.1 84 1.1 CALM 0 0 0 0 1029.2 1029.4 0.0
11/08:00pm 5.3 3.6 2.1 80 1.3 CALM 0 0 0 0 1029.2 1029.4 0.0
11/07:30pm 6.3 3.6 2.6 77 1.5 SW 6 7 3 4 1029.3 1029.5 0.0
11/07:00pm 7.0 5.5 2.9 75 1.7 CALM 0 0 0 0 1029.2 1029.4 0.0
11/06:30pm 8.1 5.6 3.6 73 2.0 SSE 6 7 3 4 1028.9 1029.1 0.0
11/06:00pm 9.6 6.6 4.2 69 2.4 SSE 9 11 5 6 1028.7 1028.9 0.0
11/05:30pm 11.2 8.3 4.4 63 3.1 SSE 9 11 5 6 1028.5 1028.7 0.0
11/05:00pm 12.4 9.1 4.6 59 3.6 SSE 11 15 6 8 1028.4 1028.6 0.0
11/04:30pm 13.8 10.9 4.4 53 4.4 SE 9 15 5 8 1028.3 1028.5 0.0
11/04:00pm 14.2 11.6 4.2 51 4.6 SE 7 13 4 7 1028.5 1028.7 0.0
11/03:30pm 14.2 11.2 4.2 51 4.7 SE 9 15 5 8 1028.4 1028.6 0.0
11/03:00pm 14.3 11.7 4.0 50 4.7 SE 7 17 4 9 1028.5 1028.7 0.0
11/02:30pm 14.5 12.9 4.5 51 4.7 SW 2 9 1 5 1028.7 1028.9 0.0
11/02:00pm 14.4 11.5 4.4 51 4.7 NE 9 19 5 10 1028.8 1029.0 0.0
11/01:30pm 13.9 10.9 4.2 52 4.5 ESE 9 17 5 9 1029.0 1029.2 0.0
11/01:00pm 13.2 10.6 4.4 55 4.1 ESE 7 15 4 8 1029.4 1029.7 0.0
11/12:30pm 12.6 10.2 4.3 57 3.8 ESE 6 11 3 6 1029.9 1030.2 0.0
11/12:00pm 11.4 8.5 4.4 62 3.2 E 9 17 5 9 1030.6 1030.9 0.0
11/11:30am 11.1 7.7 4.1 62 3.2 ESE 11 20 6 11 1031.2 1031.4 0.0
11/11:00am 11.4 7.7 4.6 63 3.1 SSE 13 24 7 13 1031.7 1031.9 0.0
11/10:30am 10.5 7.3 4.9 68 2.6 E 11 19 6 10 1031.9 1032.1 0.0
11/10:00am 9.9 7.0 4.7 70 2.3 SE 9 15 5 8 1032.1 1032.3 0.0
11/09:30am 9.6 7.1 4.8 72 2.2 E 7 11 4 6 1032.1 1032.3 0.0
11/09:00am 8.9 5.6 4.5 74 2.0 SSE 11 19 6 10 1031.9 1032.1 0.0
11/08:30am 8.7 5.5 4.9 77 1.7 SSE 11 17 6 9 1031.6 1031.8 0.0
11/08:00am 8.4 5.2 5.0 79 1.5 SSE 11 19 6 10 1031.5 1031.7 0.0

Other formats

Comma delimited format used in spreadsheet applications
http://www.bom.gov.au/fwo/IDW60801/IDW60801.95642.axf

JavaScript Object Notation format (JSON) in row-major order
http://www.bom.gov.au/fwo/IDW60801/IDW60801.95642.json

Data quality

Most of these data are generated automatically and are frequently updated. Quality checks on data are not normally performed. It is possible for incorrect values to appear. Refer to information at About Latest Weather Observations and please check the disclaimer before using these data.